Time;durP1;ratioP1;P1;durP2;ratioP2;P2;SDS_P1;SDS_P2;PMS_P1;PMS_P2;Temp;Humidity;BMP_temperature;BMP_pressure;BME280_temperature;BME280_humidity;BME280_pressure;Samples;Min_cycle;Max_cycle;Signal;HPM_P1;HPM_P2
2023/02/25 00:00:47;;;;;;;7.13;3.70;;;8.40;99.90;;;;;;10139824;28;20049;-64
2023/02/25 00:05:39;;;;;;;10.43;4.80;;;8.30;99.90;;;;;;10137727;28;20045;-63
2023/02/25 00:10:30;;;;;;;9.32;4.97;;;8.20;99.90;;;;;;10141800;28;20153;-64
2023/02/25 00:15:20;;;;;;;7.13;3.80;;;8.20;99.90;;;;;;10128012;28;20149;-63
2023/02/25 00:20:12;;;;;;;11.85;3.88;;;8.30;99.90;;;;;;10121033;28;20105;-63
2023/02/25 00:25:03;;;;;;;7.18;3.75;;;8.30;99.90;;;;;;10138482;28;20358;-63
2023/02/25 00:29:54;;;;;;;8.20;3.90;;;8.20;99.90;;;;;;10128603;28;20043;-62
2023/02/25 00:34:46;;;;;;;7.47;4.78;;;8.20;99.90;;;;;;10128680;28;20511;-63
2023/02/25 00:39:42;;;;;;;11.13;4.70;;;8.20;99.90;;;;;;10127460;28;20689;-63
2023/02/25 00:44:33;;;;;;;10.05;4.00;;;8.20;99.90;;;;;;10146297;28;20250;-64
2023/02/25 00:49:25;;;;;;;6.88;3.17;;;8.20;99.90;;;;;;10119184;28;20013;-63
2023/02/25 00:54:16;;;;;;;8.15;3.92;;;8.10;99.90;;;;;;10137111;28;20047;-63
2023/02/25 00:59:07;;;;;;;5.90;3.63;;;8.10;99.90;;;;;;10127714;28;20491;-62
2023/02/25 01:03:58;;;;;;;9.48;4.47;;;8.10;99.90;;;;;;10132891;28;20033;-64
2023/02/25 01:08:49;;;;;;;6.22;3.90;;;8.20;99.90;;;;;;10136139;28;20035;-64
2023/02/25 01:13:40;;;;;;;5.72;3.45;;;8.10;99.90;;;;;;10119342;28;20033;-63
2023/02/25 01:18:31;;;;;;;8.43;3.20;;;8.10;99.90;;;;;;10135564;28;20063;-63
2023/02/25 01:23:22;;;;;;;7.20;5.18;;;8.00;99.90;;;;;;10121035;28;20040;-64
2023/02/25 01:28:13;;;;;;;9.15;4.40;;;8.00;99.90;;;;;;10127629;28;20025;-63
2023/02/25 01:33:04;;;;;;;8.07;3.97;;;8.00;99.90;;;;;;10117467;28;20224;-63
2023/02/25 01:37:55;;;;;;;6.85;4.32;;;8.00;99.90;;;;;;10122217;28;20303;-63
2023/02/25 01:42:46;;;;;;;9.93;5.57;;;8.00;99.90;;;;;;10132863;28;20024;-64
2023/02/25 01:47:39;;;;;;;7.82;4.28;;;7.90;99.90;;;;;;10107975;28;20467;-63
2023/02/25 01:52:30;;;;;;;9.85;5.35;;;7.90;99.90;;;;;;10138673;28;20029;-64
2023/02/25 01:57:22;;;;;;;8.35;3.67;;;7.90;99.90;;;;;;10117324;28;20412;-64
2023/02/25 02:02:16;;;;;;;5.82;3.58;;;7.90;99.90;;;;;;10099202;28;20055;-64
2023/02/25 02:07:07;;;;;;;8.63;4.40;;;7.90;99.90;;;;;;10099518;28;20445;-64
2023/02/25 02:12:03;;;;;;;10.57;4.55;;;7.80;99.90;;;;;;10100461;28;20074;-64
2023/02/25 02:17:06;;;;;;;8.43;4.57;;;7.70;99.90;;;;;;10116957;28;20029;-64
2023/02/25 02:22:11;;;;;;;8.23;4.63;;;7.70;99.90;;;;;;10121303;28;20037;-63
2023/02/25 02:27:25;;;;;;;5.10;3.28;;;7.70;99.90;;;;;;10130717;28;20162;-63
2023/02/25 02:32:24;;;;;;;9.95;3.97;;;7.80;99.90;;;;;;10123490;28;20036;-60
2023/02/25 02:37:22;;;;;;;7.68;4.45;;;7.80;99.90;;;;;;10145243;28;20039;-61
2023/02/25 02:42:20;;;;;;;9.30;4.25;;;7.80;99.90;;;;;;10128816;28;20482;-61
2023/02/25 02:47:38;;;;;;;6.78;3.58;;;7.70;99.90;;;;;;10131911;28;20463;-61
2023/02/25 02:52:31;;;;;;;7.30;4.03;;;7.80;99.90;;;;;;10098707;28;20102;-67
2023/02/25 02:57:26;;;;;;;9.93;4.15;;;7.90;99.90;;;;;;10117322;28;20110;-63
2023/02/25 03:02:22;;;;;;;10.20;4.50;;;7.70;99.90;;;;;;10135046;28;20528;-63
2023/02/25 03:07:14;;;;;;;7.22;3.63;;;7.60;99.90;;;;;;10119187;28;20496;-64
2023/02/25 03:12:05;;;;;;;8.05;4.13;;;7.50;99.90;;;;;;10135268;28;20036;-63
2023/02/25 03:16:58;;;;;;;5.13;3.50;;;7.60;99.90;;;;;;10137156;28;20063;-63
2023/02/25 03:21:56;;;;;;;9.52;3.97;;;7.60;99.90;;;;;;10109922;28;20476;-63
2023/02/25 03:26:49;;;;;;;6.85;3.38;;;7.70;99.90;;;;;;10150807;28;20123;-63
2023/02/25 03:32:04;;;;;;;10.32;5.97;;;7.50;99.90;;;;;;10117552;28;20028;-61
2023/02/25 03:36:59;;;;;;;8.23;4.70;;;7.50;99.90;;;;;;10124015;28;20048;-63
2023/02/25 03:41:53;;;;;;;11.25;5.43;;;7.50;99.90;;;;;;10147542;28;20032;-63
2023/02/25 03:46:46;;;;;;;10.00;4.97;;;7.40;99.90;;;;;;10106462;28;20423;-63
2023/02/25 03:51:40;;;;;;;9.13;4.07;;;7.40;99.90;;;;;;10111336;28;20029;-62
2023/02/25 03:56:40;;;;;;;7.82;4.38;;;7.40;99.90;;;;;;10130070;28;20171;-64
2023/02/25 04:01:31;;;;;;;10.30;3.40;;;7.30;99.90;;;;;;10151568;28;20032;-62
2023/02/25 04:06:23;;;;;;;8.35;3.55;;;7.30;99.90;;;;;;10147280;28;20620;-64
2023/02/25 04:11:14;;;;;;;11.32;4.30;;;7.30;99.90;;;;;;10139977;28;20078;-63
2023/02/25 04:16:07;;;;;;;5.45;3.03;;;7.40;99.90;;;;;;10121364;28;20109;-63
2023/02/25 04:20:57;;;;;;;4.60;2.78;;;7.30;99.90;;;;;;10142883;28;20437;-64
2023/02/25 04:25:48;;;;;;;11.70;4.07;;;7.20;99.90;;;;;;10143616;28;20516;-64
2023/02/25 04:30:39;;;;;;;7.57;3.72;;;7.10;99.90;;;;;;10121515;28;20032;-62
2023/02/25 04:35:30;;;;;;;8.38;3.65;;;7.00;99.90;;;;;;10102517;28;20045;-63
2023/02/25 04:40:23;;;;;;;13.52;4.18;;;6.90;99.90;;;;;;10141154;28;20017;-63
2023/02/25 04:45:14;;;;;;;6.25;4.47;;;6.80;99.90;;;;;;10141665;28;20025;-62
2023/02/25 04:50:08;;;;;;;6.40;2.97;;;6.80;99.90;;;;;;10128660;28;20096;-62
2023/02/25 04:54:58;;;;;;;7.68;3.55;;;6.80;99.90;;;;;;10141756;28;20032;-62
2023/02/25 04:59:49;;;;;;;7.28;3.33;;;6.70;99.90;;;;;;10141156;28;20021;-62
2023/02/25 05:04:40;;;;;;;7.40;3.00;;;6.60;99.90;;;;;;10144779;28;20503;-63
2023/02/25 05:09:31;;;;;;;5.85;2.88;;;6.50;99.90;;;;;;10140179;28;20028;-62
2023/02/25 05:14:22;;;;;;;7.22;3.40;;;6.50;99.90;;;;;;10140223;28;20040;-63
2023/02/25 05:19:22;;;;;;;6.57;3.45;;;6.50;99.90;;;;;;10140385;28;20081;-62
2023/02/25 05:24:13;;;;;;;4.88;2.53;;;6.50;99.90;;;;;;10141437;28;20481;-63
2023/02/25 05:29:03;;;;;;;6.18;2.92;;;6.50;99.90;;;;;;10132935;28;20025;-62
2023/02/25 05:33:54;;;;;;;6.68;2.80;;;6.50;99.90;;;;;;10131781;28;20265;-63
2023/02/25 05:38:45;;;;;;;4.47;2.30;;;6.50;99.90;;;;;;10140212;28;20028;-62
2023/02/25 05:43:38;;;;;;;6.18;2.72;;;6.60;99.90;;;;;;10148178;28;20583;-62
2023/02/25 05:48:30;;;;;;;6.50;2.50;;;6.60;99.90;;;;;;10121139;28;20067;-62
2023/02/25 05:53:20;;;;;;;7.57;2.80;;;6.50;99.90;;;;;;10139773;28;20048;-62
2023/02/25 05:58:12;;;;;;;6.18;3.88;;;6.50;99.90;;;;;;10138361;28;20044;-62
2023/02/25 06:03:03;;;;;;;6.75;3.47;;;6.40;99.90;;;;;;10140754;28;20079;-62
2023/02/25 06:07:57;;;;;;;6.03;3.50;;;6.40;99.90;;;;;;10127519;28;20043;-62
2023/02/25 06:12:48;;;;;;;10.30;2.50;;;6.40;99.90;;;;;;10136132;28;20040;-63
2023/02/25 06:17:39;;;;;;;4.35;3.05;;;6.30;99.90;;;;;;10137328;28;20158;-64
2023/02/25 06:22:30;;;;;;;5.28;3.10;;;6.30;99.90;;;;;;10138386;28;20558;-64
2023/02/25 06:27:21;;;;;;;4.95;2.88;;;6.30;99.90;;;;;;10138784;28;20103;-65
2023/02/25 06:32:11;;;;;;;5.20;2.80;;;6.30;99.90;;;;;;10137981;28;20036;-61
2023/02/25 06:37:02;;;;;;;4.45;2.53;;;6.30;99.90;;;;;;10137892;28;20163;-62
2023/02/25 06:41:53;;;;;;;4.68;1.98;;;6.30;99.90;;;;;;10122171;28;20024;-63
2023/02/25 06:46:44;;;;;;;5.05;3.25;;;6.50;99.90;;;;;;10138748;28;20099;-62
2023/02/25 06:51:34;;;;;;;4.40;2.00;;;6.50;99.90;;;;;;10137472;28;20024;-62
2023/02/25 06:56:25;;;;;;;6.40;2.65;;;6.40;99.90;;;;;;10127258;28;20424;-61
2023/02/25 07:01:16;;;;;;;2.92;1.80;;;6.50;99.90;;;;;;10136135;28;20032;-62
2023/02/25 07:06:07;;;;;;;7.03;2.50;;;6.60;99.90;;;;;;10138091;28;20036;-63
2023/02/25 07:11:24;;;;;;;5.97;2.63;;;6.50;99.90;;;;;;10137719;28;20093;-62
2023/02/25 07:16:19;;;;;;;4.70;1.92;;;6.50;99.90;;;;;;10100486;28;20052;-63
2023/02/25 07:21:11;;;;;;;3.22;1.70;;;6.40;99.90;;;;;;10125368;28;20047;-62
2023/02/25 07:26:06;;;;;;;5.72;2.40;;;6.40;99.90;;;;;;10139636;28;20028;-63
2023/02/25 07:31:01;;;;;;;2.47;1.33;;;6.30;99.90;;;;;;10121857;28;20098;-65
2023/02/25 07:35:55;;;;;;;3.88;1.20;;;6.40;99.90;;;;;;10143081;28;20208;-63
2023/02/25 07:40:46;;;;;;;5.05;1.55;;;6.40;99.90;;;;;;10123636;28;20017;-63
2023/02/25 07:45:36;;;;;;;6.72;2.28;;;6.40;99.90;;;;;;10123167;28;20398;-64
2023/02/25 07:50:27;;;;;;;5.30;3.13;;;6.50;99.90;;;;;;10133712;28;20047;-63
2023/02/25 07:55:18;;;;;;;2.80;1.42;;;6.50;99.90;;;;;;10137571;28;20033;-63
2023/02/25 08:00:09;;;;;;;3.03;2.15;;;6.50;99.90;;;;;;10143669;28;20024;-63
2023/02/25 08:05:00;;;;;;;6.35;1.63;;;6.50;99.90;;;;;;10161137;28;20021;-64
2023/02/25 08:09:50;;;;;;;1.80;1.25;;;6.60;99.90;;;;;;10139842;28;20025;-64
2023/02/25 08:14:41;;;;;;;3.28;1.20;;;6.70;99.90;;;;;;10127623;28;20036;-63
2023/02/25 08:19:32;;;;;;;4.70;1.52;;;7.00;99.90;;;;;;10137603;28;20446;-64
2023/02/25 08:24:22;;;;;;;5.88;1.48;;;7.40;99.90;;;;;;10142868;28;20036;-62
2023/02/25 08:29:13;;;;;;;2.03;1.67;;;7.60;99.90;;;;;;10142015;28;20032;-62
2023/02/25 08:34:04;;;;;;;2.17;1.30;;;7.70;99.90;;;;;;10142079;28;20477;-63
2023/02/25 08:38:56;;;;;;;2.42;1.45;;;7.70;99.90;;;;;;10142474;28;20020;-64
2023/02/25 08:43:55;;;;;;;3.30;1.90;;;7.60;99.90;;;;;;10147771;28;20029;-65
2023/02/25 08:48:48;;;;;;;3.80;1.50;;;7.30;99.90;;;;;;10102763;28;20411;-63
2023/02/25 08:53:40;;;;;;;3.05;1.17;;;7.30;99.90;;;;;;10131327;28;20204;-64
2023/02/25 08:58:31;;;;;;;2.75;1.08;;;7.30;99.90;;;;;;10141322;28;20390;-62
2023/02/25 09:03:21;;;;;;;1.67;1.10;;;7.30;99.90;;;;;;10140774;28;20273;-63
2023/02/25 09:08:12;;;;;;;2.70;1.70;;;7.40;99.90;;;;;;10140336;28;20630;-63
2023/02/25 09:13:03;;;;;;;3.05;0.82;;;7.40;99.90;;;;;;10139419;28;20036;-63
2023/02/25 09:17:53;;;;;;;1.08;0.63;;;7.60;99.90;;;;;;10108551;28;20036;-62
2023/02/25 09:22:44;;;;;;;2.15;1.30;;;7.80;99.90;;;;;;10140540;28;20032;-64
2023/02/25 09:27:35;;;;;;;2.10;0.60;;;7.80;99.90;;;;;;10125611;28;20025;-63
2023/02/25 09:32:26;;;;;;;5.78;1.13;;;7.90;99.90;;;;;;10134997;28;20035;-62
2023/02/25 09:37:18;;;;;;;1.45;0.75;;;8.20;99.90;;;;;;10139806;28;20046;-63
2023/02/25 09:42:15;;;;;;;2.53;1.42;;;8.10;99.90;;;;;;10153116;28;20503;-63
2023/02/25 09:47:37;;;;;;;4.55;1.00;;;8.30;99.90;;;;;;10126962;28;20056;-63
2023/02/25 09:52:31;;;;;;;1.58;0.82;;;8.20;99.90;;;;;;10138823;28;20555;-63
2023/02/25 09:57:22;;;;;;;3.05;1.83;;;8.20;99.90;;;;;;10138800;28;20028;-62
2023/02/25 10:02:37;;;;;;;2.45;1.50;;;8.10;99.90;;;;;;10137707;28;20123;-63
2023/02/25 10:07:34;;;;;;;3.08;1.38;;;8.20;99.90;;;;;;10138675;28;20028;-63
2023/02/25 10:12:55;;;;;;;7.50;2.38;;;8.10;99.90;;;;;;10132999;28;20094;-64
2023/02/25 10:18:13;;;;;;;3.15;1.70;;;8.00;99.90;;;;;;10136381;28;20024;-64
2023/02/25 10:23:13;;;;;;;7.50;1.58;;;8.10;99.90;;;;;;10120540;28;20029;-63
2023/02/25 10:28:06;;;;;;;3.42;1.33;;;8.10;99.90;;;;;;10105358;28;20412;-63
2023/02/25 10:33:02;;;;;;;7.22;1.50;;;8.00;99.90;;;;;;10130828;28;20124;-63
2023/02/25 10:37:52;;;;;;;4.60;1.33;;;7.90;99.90;;;;;;10142111;28;20039;-63
2023/02/25 10:42:47;;;;;;;3.55;2.08;;;8.10;99.90;;;;;;10122017;28;20480;-62
2023/02/25 10:47:40;;;;;;;3.80;1.63;;;8.50;99.90;;;;;;10108071;28;20059;-62
2023/02/25 10:52:31;;;;;;;3.90;1.85;;;8.50;99.90;;;;;;10139662;28;20029;-63
2023/02/25 10:57:26;;;;;;;2.53;0.93;;;8.50;99.90;;;;;;10138266;28;20115;-64
2023/02/25 11:02:38;;;;;;;2.93;1.20;;;8.60;99.90;;;;;;10142274;28;20394;-63
2023/02/25 11:07:37;;;;;;;5.35;1.30;;;8.80;99.90;;;;;;10145039;28;20123;-64
2023/02/25 11:12:38;;;;;;;2.83;1.10;;;8.80;99.40;;;;;;10124322;28;20508;-62
2023/02/25 11:17:29;;;;;;;4.43;1.80;;;8.60;99.30;;;;;;10144344;28;20482;-61
2023/02/25 11:22:25;;;;;;;5.40;1.15;;;8.40;99.10;;;;;;10144930;28;20258;-60
2023/02/25 11:27:35;;;;;;;2.00;0.90;;;8.40;98.90;;;;;;10136530;28;20119;-62
2023/02/25 11:32:25;;;;;;;2.83;1.05;;;8.30;98.60;;;;;;10144309;28;20508;-62
2023/02/25 11:37:24;;;;;;;4.22;1.27;;;8.10;98.40;;;;;;10143351;28;20111;-60
2023/02/25 11:42:28;;;;;;;1.92;1.00;;;8.00;98.20;;;;;;10155666;28;20028;-62
2023/02/25 11:47:25;;;;;;;5.65;1.90;;;7.90;98.10;;;;;;10112476;28;20497;-61
2023/02/25 11:52:42;;;;;;;3.80;1.73;;;7.90;98.00;;;;;;10140401;28;20101;-62
2023/02/25 11:57:42;;;;;;;1.70;0.90;;;8.00;98.10;;;;;;10138022;28;20051;-62
2023/02/25 12:03:13;;;;;;;6.57;1.85;;;8.10;98.10;;;;;;10143242;28;20048;-61
2023/02/25 12:08:19;;;;;;;1.73;0.80;;;8.20;97.90;;;;;;10101744;28;20037;-64
2023/02/25 12:13:27;;;;;;;7.88;1.48;;;8.10;97.90;;;;;;10110803;28;20039;-61
2023/02/25 12:18:27;;;;;;;2.85;0.93;;;8.20;98.00;;;;;;10115348;28;20228;-63
2023/02/25 12:23:36;;;;;;;7.88;3.03;;;8.20;98.00;;;;;;10143557;28;20031;-63
2023/02/25 12:29:02;;;;;;;6.32;2.03;;;8.10;97.80;;;;;;10123598;28;20128;-62
2023/02/25 12:34:15;;;;;;;3.70;0.90;;;8.10;97.80;;;;;;10129569;28;20196;-64
2023/02/25 12:39:50;;;;;;;5.13;1.40;;;8.10;97.70;;;;;;10126915;28;20471;-62
2023/02/25 12:45:22;;;;;;;4.88;2.35;;;8.30;97.60;;;;;;10110645;28;20117;-62
2023/02/25 12:50:44;;;;;;;3.13;1.50;;;8.50;97.90;;;;;;10130201;28;20502;-63
2023/02/25 12:55:44;;;;;;;1.30;0.90;;;8.60;97.60;;;;;;10141855;28;20562;-63
2023/02/25 13:00:58;;;;;;;3.28;1.05;;;8.80;97.60;;;;;;10142047;28;20414;-62
2023/02/25 13:05:58;;;;;;;4.05;1.55;;;8.60;97.40;;;;;;10141350;28;20028;-62
2023/02/25 13:10:59;;;;;;;3.95;1.88;;;8.70;97.50;;;;;;10137081;28;20402;-61
2023/02/25 13:16:17;;;;;;;2.92;1.00;;;8.40;97.20;;;;;;10136324;28;20513;-63
2023/02/25 13:21:19;;;;;;;3.45;1.05;;;8.50;97.20;;;;;;10140038;28;20151;-62
2023/02/25 13:26:44;;;;;;;2.63;1.05;;;8.60;97.20;;;;;;10146894;28;20028;-64
2023/02/25 13:31:40;;;;;;;3.92;1.70;;;8.30;97.10;;;;;;10126898;28;20021;-64
2023/02/25 13:37:05;;;;;;;1.95;1.35;;;8.20;97.10;;;;;;10140730;28;20499;-64
2023/02/25 13:42:05;;;;;;;2.90;1.92;;;8.20;97.20;;;;;;10126379;28;20490;-62
2023/02/25 13:47:17;;;;;;;3.35;1.70;;;8.40;97.10;;;;;;10129438;28;20387;-62
2023/02/25 13:52:28;;;;;;;2.67;1.63;;;8.30;97.10;;;;;;10121104;28;20033;-63
2023/02/25 13:57:41;;;;;;;2.92;1.20;;;8.50;97.20;;;;;;10126540;28;20086;-63
2023/02/25 14:02:37;;;;;;;7.22;1.90;;;9.00;97.00;;;;;;10137202;28;20020;-63
2023/02/25 14:07:43;;;;;;;2.35;1.50;;;9.10;97.00;;;;;;10132009;28;20113;-63
2023/02/25 14:13:02;;;;;;;4.65;1.30;;;9.00;96.70;;;;;;10136379;28;20061;-63
2023/02/25 14:18:14;;;;;;;5.90;1.48;;;8.90;96.90;;;;;;10137946;28;20547;-63
2023/02/25 14:23:23;;;;;;;3.60;2.20;;;8.90;96.70;;;;;;10138243;28;20021;-62
2023/02/25 14:28:26;;;;;;;2.53;1.27;;;8.90;96.40;;;;;;10137089;28;20082;-63
2023/02/25 14:33:34;;;;;;;7.47;1.13;;;9.20;96.20;;;;;;10124277;28;20093;-63
2023/02/25 14:38:32;;;;;;;2.13;1.42;;;9.30;96.00;;;;;;10138160;28;20522;-64
2023/02/25 14:43:28;;;;;;;5.38;1.33;;;10.70;95.30;;;;;;10135290;28;20433;-64
2023/02/25 14:48:25;;;;;;;4.60;1.20;;;10.70;95.10;;;;;;10109998;28;20028;-64
2023/02/25 14:53:21;;;;;;;3.05;1.42;;;15.60;93.30;;;;;;10137366;28;20514;-64
2023/02/25 14:58:46;;;;;;;2.83;1.00;;;16.30;92.90;;;;;;10137532;28;20035;-63
2023/02/25 15:04:05;;;;;;;4.40;1.55;;;16.00;92.00;;;;;;10134112;28;20022;-64
2023/02/25 15:09:34;;;;;;;2.75;1.27;;;18.70;90.30;;;;;;10111584;28;20533;-63
2023/02/25 15:14:52;;;;;;;1.40;0.88;;;19.70;84.30;;;;;;10124857;28;20033;-61
2023/02/25 15:20:20;;;;;;;3.45;1.35;;;19.70;80.50;;;;;;10126710;28;20029;-62
2023/02/25 15:25:20;;;;;;;3.58;1.70;;;16.80;79.40;;;;;;10134006;28;20173;-62
2023/02/25 15:30:14;;;;;;;2.53;1.02;;;13.50;81.70;;;;;;10144263;28;20082;-63
2023/02/25 15:35:12;;;;;;;3.90;1.45;;;13.00;82.10;;;;;;10155066;28;20687;-63
2023/02/25 15:40:15;;;;;;;5.65;2.50;;;12.50;81.20;;;;;;10149587;28;20329;-64
2023/02/25 15:45:28;;;;;;;4.32;1.10;;;11.50;81.20;;;;;;10168162;28;20024;-62
2023/02/25 15:50:58;;;;;;;7.03;1.55;;;10.90;81.00;;;;;;10166359;28;20256;-59
2023/02/25 15:56:12;;;;;;;6.35;1.35;;;10.20;81.40;;;;;;10151161;28;20394;-62
2023/02/25 16:01:06;;;;;;;3.70;1.23;;;9.90;81.80;;;;;;10140329;28;20037;-64
2023/02/25 16:06:31;;;;;;;7.45;1.70;;;9.40;81.90;;;;;;10158709;28;20020;-64
2023/02/25 16:11:34;;;;;;;4.88;1.42;;;9.40;82.10;;;;;;10168994;28;20016;-61
2023/02/25 16:16:28;;;;;;;3.35;1.70;;;9.40;82.30;;;;;;10154866;28;20123;-64
2023/02/25 16:21:28;;;;;;;4.85;1.17;;;9.30;82.50;;;;;;10151889;28;20016;-62
2023/02/25 16:26:41;;;;;;;4.55;1.52;;;9.00;82.70;;;;;;10154959;28;20406;-63
2023/02/25 16:31:40;;;;;;;3.05;1.45;;;8.80;83.00;;;;;;10169669;28;20063;-64
2023/02/25 16:37:21;;;;;;;6.13;1.70;;;8.70;83.30;;;;;;10167558;28;20148;-64
2023/02/25 16:42:16;;;;;;;4.18;1.63;;;8.70;83.40;;;;;;10152400;28;20032;-65
2023/02/25 16:47:27;;;;;;;3.70;2.08;;;8.50;83.80;;;;;;10157024;28;20040;-64
2023/02/25 16:52:29;;;;;;;7.07;1.92;;;8.30;84.50;;;;;;10140963;28;20035;-65
2023/02/25 16:57:21;;;;;;;7.65;2.05;;;8.40;84.90;;;;;;10148046;28;20547;-61
2023/02/25 17:02:14;;;;;;;4.82;2.70;;;8.60;85.30;;;;;;10150845;28;20028;-62
2023/02/25 17:07:19;;;;;;;7.45;2.53;;;8.40;85.70;;;;;;10163976;28;20029;-62
2023/02/25 17:12:35;;;;;;;3.55;1.23;;;8.40;86.40;;;;;;10157178;28;20111;-62
2023/02/25 17:17:31;;;;;;;3.85;1.05;;;8.30;87.00;;;;;;10117395;28;20033;-63
2023/02/25 17:22:23;;;;;;;1.67;1.00;;;8.30;87.50;;;;;;10126364;28;20021;-63
2023/02/25 17:27:14;;;;;;;3.33;1.83;;;8.30;87.80;;;;;;10126642;28;20036;-61
2023/02/25 17:32:13;;;;;;;4.95;1.50;;;8.40;88.30;;;;;;10121944;28;20017;-62
2023/02/25 17:37:07;;;;;;;3.75;1.45;;;8.30;88.90;;;;;;10125655;28;20055;-62
2023/02/25 17:41:58;;;;;;;7.80;1.98;;;8.30;89.50;;;;;;10127992;28;20043;-61
2023/02/25 17:46:50;;;;;;;2.67;1.02;;;8.10;90.00;;;;;;10127476;28;20116;-62
2023/02/25 17:51:40;;;;;;;3.05;1.48;;;8.20;90.20;;;;;;10121387;28;20525;-61
2023/02/25 17:56:32;;;;;;;3.22;1.42;;;8.30;90.50;;;;;;10119709;28;20043;-61
2023/02/25 18:01:29;;;;;;;3.85;1.90;;;8.20;90.80;;;;;;10138648;28;20131;-61
2023/02/25 18:06:33;;;;;;;1.90;1.10;;;8.20;91.30;;;;;;10114995;28;20064;-61
2023/02/25 18:11:38;;;;;;;1.70;0.70;;;8.00;91.60;;;;;;10129259;28;20551;-61
2023/02/25 18:16:37;;;;;;;0.95;0.68;;;7.80;91.80;;;;;;10120676;28;20036;-62
2023/02/25 18:21:28;;;;;;;0.60;0.43;;;7.50;92.10;;;;;;10124338;28;20457;-62
2023/02/25 18:26:24;;;;;;;1.23;1.13;;;7.40;92.40;;;;;;10120588;28;20104;-62
2023/02/25 18:31:18;;;;;;;1.50;0.73;;;7.30;93.10;;;;;;10124881;28;20206;-61
2023/02/25 18:36:14;;;;;;;0.77;0.60;;;7.30;93.40;;;;;;10114146;28;20060;-61
2023/02/25 18:41:06;;;;;;;1.30;0.60;;;7.30;93.90;;;;;;10126122;28;20028;-63
2023/02/25 18:45:58;;;;;;;1.92;1.17;;;7.20;94.40;;;;;;10125551;28;20477;-63
2023/02/25 18:50:49;;;;;;;2.00;1.20;;;7.20;94.70;;;;;;10128532;28;20026;-64
2023/02/25 18:55:39;;;;;;;8.48;2.92;;;7.30;95.00;;;;;;10120816;28;20025;-64
2023/02/25 19:00:30;;;;;;;20.40;7.30;;;7.20;95.50;;;;;;10128465;28;20024;-63
2023/02/25 19:05:22;;;;;;;7.07;3.17;;;7.20;95.80;;;;;;10113784;28;20020;-62
2023/02/25 19:10:24;;;;;;;12.80;5.47;;;7.20;95.90;;;;;;10126313;28;20152;-64
2023/02/25 19:15:18;;;;;;;6.57;2.38;;;7.10;96.00;;;;;;10121809;28;20040;-62
2023/02/25 19:20:12;;;;;;;3.58;1.80;;;7.10;96.30;;;;;;10122865;28;20111;-62
2023/02/25 19:25:02;;;;;;;5.50;2.30;;;7.10;96.40;;;;;;10121148;28;20095;-64
2023/02/25 19:29:56;;;;;;;4.93;2.60;;;7.00;96.60;;;;;;10114927;28;20135;-63
2023/02/25 19:34:47;;;;;;;2.00;1.40;;;6.90;96.80;;;;;;10127144;28;20048;-65
2023/02/25 19:39:38;;;;;;;2.88;1.92;;;6.80;97.10;;;;;;10143912;28;20025;-61
2023/02/25 19:44:31;;;;;;;3.47;2.03;;;6.70;97.40;;;;;;10139806;28;20020;-64
2023/02/25 19:49:22;;;;;;;4.60;2.30;;;6.60;97.70;;;;;;10140630;28;20113;-66
2023/02/25 19:54:13;;;;;;;3.30;1.90;;;6.50;97.90;;;;;;10138322;28;20064;-65
2023/02/25 19:59:03;;;;;;;3.97;1.90;;;6.50;98.10;;;;;;10135287;28;20036;-64
2023/02/25 20:03:54;;;;;;;5.00;1.75;;;6.40;98.20;;;;;;10131260;28;20040;-67
2023/02/25 20:08:51;;;;;;;3.53;1.58;;;6.30;98.40;;;;;;10132280;28;20032;-68
2023/02/25 20:13:41;;;;;;;3.15;1.90;;;6.20;98.60;;;;;;10141423;28;20035;-69
2023/02/25 20:18:32;;;;;;;2.47;1.55;;;6.00;99.10;;;;;;10139471;28;20086;-69
2023/02/25 20:23:23;;;;;;;2.58;1.58;;;5.90;99.30;;;;;;10132022;28;20028;-67
2023/02/25 20:28:13;;;;;;;3.20;2.15;;;5.90;99.40;;;;;;10137794;28;20160;-63
2023/02/25 20:33:04;;;;;;;2.95;1.20;;;5.70;99.50;;;;;;10129648;28;20148;-66
2023/02/25 20:38:21;;;;;;;2.20;0.88;;;5.70;99.30;;;;;;10140756;28;20035;-64
2023/02/25 20:43:12;;;;;;;2.35;1.65;;;5.60;99.00;;;;;;10143885;28;20068;-65
2023/02/25 20:48:02;;;;;;;4.55;1.05;;;5.50;98.80;;;;;;10145365;28;20030;-65
2023/02/25 20:52:54;;;;;;;1.73;1.02;;;5.40;98.50;;;;;;10151808;28;20066;-65
2023/02/25 20:57:47;;;;;;;3.38;1.15;;;5.40;98.40;;;;;;10152819;28;20020;-67
2023/02/25 21:02:38;;;;;;;2.30;1.08;;;5.30;98.20;;;;;;10141174;28;20150;-64
2023/02/25 21:07:29;;;;;;;1.67;1.10;;;5.20;98.10;;;;;;10128557;28;20158;-64
2023/02/25 21:12:19;;;;;;;3.35;1.35;;;5.20;98.00;;;;;;10127748;28;20028;-66
2023/02/25 21:17:12;;;;;;;2.70;2.30;;;5.10;97.90;;;;;;10131692;28;20037;-64
2023/02/25 21:22:03;;;;;;;3.78;1.30;;;5.00;97.90;;;;;;10113918;28;20063;-65
2023/02/25 21:26:54;;;;;;;1.55;1.08;;;4.90;97.90;;;;;;10131623;28;20016;-64
2023/02/25 21:31:44;;;;;;;1.63;1.00;;;4.80;97.90;;;;;;10135995;28;20428;-64
2023/02/25 21:36:35;;;;;;;1.98;1.10;;;4.80;97.80;;;;;;10146450;28;20040;-63
2023/02/25 21:41:26;;;;;;;1.98;1.63;;;4.80;97.60;;;;;;10140150;28;20025;-65
2023/02/25 21:46:16;;;;;;;8.20;3.60;;;4.70;97.40;;;;;;10119548;28;20043;-64
2023/02/25 21:51:14;;;;;;;8.90;4.20;;;4.80;97.20;;;;;;10138665;28;20307;-65
2023/02/25 21:56:14;;;;;;;5.15;2.63;;;4.90;97.00;;;;;;10130139;28;20040;-65
2023/02/25 22:01:12;;;;;;;5.53;2.10;;;4.80;96.60;;;;;;10112587;28;20394;-65
2023/02/25 22:06:03;;;;;;;2.60;1.92;;;4.80;96.30;;;;;;10138297;28;20028;-64
2023/02/25 22:10:53;;;;;;;7.22;4.35;;;4.80;95.80;;;;;;10114483;28;20017;-63
2023/02/25 22:15:47;;;;;;;3.10;1.73;;;4.70;95.40;;;;;;10125549;28;20032;-65
2023/02/25 22:20:38;;;;;;;5.00;2.22;;;4.70;95.30;;;;;;10139010;28;20017;-66
2023/02/25 22:25:29;;;;;;;1.88;1.65;;;4.50;95.00;;;;;;10138136;28;20386;-65
2023/02/25 22:30:20;;;;;;;3.60;1.75;;;4.50;94.80;;;;;;10137905;28;20020;-64
2023/02/25 22:35:10;;;;;;;2.00;1.42;;;4.50;94.60;;;;;;10143289;28;20088;-63
2023/02/25 22:40:01;;;;;;;1.35;0.80;;;4.40;94.40;;;;;;10137889;28;20093;-63
2023/02/25 22:44:51;;;;;;;1.70;1.10;;;4.30;94.20;;;;;;10122784;28;20140;-63
2023/02/25 22:49:42;;;;;;;1.52;0.90;;;4.30;94.20;;;;;;10121695;28;20028;-64
2023/02/25 22:54:33;;;;;;;3.42;1.30;;;4.20;94.20;;;;;;10113027;28;20048;-64
2023/02/25 22:59:23;;;;;;;1.15;0.95;;;4.30;94.20;;;;;;10131107;28;20017;-65
2023/02/25 23:04:14;;;;;;;1.30;1.20;;;4.20;94.20;;;;;;10136303;28;20112;-65
2023/02/25 23:09:05;;;;;;;2.38;0.88;;;4.20;94.10;;;;;;10113352;28;20053;-64
2023/02/25 23:14:01;;;;;;;2.75;1.63;;;4.00;94.30;;;;;;10140520;28;20116;-64
2023/02/25 23:18:54;;;;;;;6.93;1.92;;;3.90;94.40;;;;;;10150924;28;20052;-64
2023/02/25 23:23:55;;;;;;;1.58;1.30;;;3.80;94.50;;;;;;10150703;28;20111;-64
2023/02/25 23:28:47;;;;;;;3.63;1.50;;;3.80;94.80;;;;;;10148990;28;20035;-64
2023/02/25 23:33:38;;;;;;;2.25;1.15;;;3.80;94.80;;;;;;10147360;28;20048;-63
2023/02/25 23:38:31;;;;;;;2.92;1.85;;;3.70;95.00;;;;;;10152712;28;20394;-64
2023/02/25 23:43:22;;;;;;;4.13;1.70;;;3.60;95.00;;;;;;10161090;28;20502;-65
2023/02/25 23:48:12;;;;;;;3.33;0.90;;;3.50;95.00;;;;;;10135916;28;20021;-64
2023/02/25 23:53:03;;;;;;;2.13;1.15;;;3.50;95.10;;;;;;10149426;28;20300;-65
2023/02/25 23:57:54;;;;;;;2.13;1.10;;;3.50;95.00;;;;;;10150342;28;20124;-65
